createdAt,value
2024-02-13T00:01:32.567Z,101287.47
2024-02-13T00:04:02.032Z,101292.25
2024-02-13T00:06:30.305Z,101291.19
2024-02-13T00:08:59.151Z,101303.56
2024-02-13T00:11:27.448Z,101301.44
2024-02-13T00:13:57.958Z,101310.56
2024-02-13T00:16:26.896Z,101301.19
2024-02-13T00:18:55.040Z,101294.09
2024-02-13T00:21:24.564Z,101291.34
2024-02-13T00:23:52.773Z,101282.44
2024-02-13T00:26:20.806Z,101272.81
2024-02-13T00:28:48.879Z,101271.97
2024-02-13T00:31:16.913Z,101275.69
2024-02-13T00:33:45.097Z,101275.97
2024-02-13T00:36:16.865Z,101285.94
2024-02-13T00:38:47.226Z,101288.97
2024-02-13T00:41:15.410Z,101287.03
2024-02-13T00:43:43.436Z,101300.25
2024-02-13T00:46:12.163Z,101293.19
2024-02-13T00:48:40.436Z,101298.34
2024-02-13T00:51:08.588Z,101294.75
2024-02-13T00:53:38.959Z,101296.16
2024-02-13T00:56:09.503Z,101293.16
2024-02-13T00:58:38.504Z,101286.53
2024-02-13T01:01:06.699Z,101293.25
2024-02-13T01:03:37.709Z,101285.53
2024-02-13T01:06:09.152Z,101271.69
2024-02-13T01:08:39.034Z,101270.38
2024-02-13T01:11:09.144Z,101264.84
2024-02-13T01:13:38.510Z,101254.84
2024-02-13T01:16:06.751Z,101262.88
2024-02-13T01:18:36.541Z,101263.16
2024-02-13T01:21:06.588Z,101269.53
2024-02-13T01:23:34.733Z,101261.94
2024-02-13T01:26:04.347Z,101260.50
2024-02-13T01:28:36.131Z,101262.69
2024-02-13T01:31:04.522Z,101247.88
2024-02-13T01:33:32.788Z,101242.59
2024-02-13T01:36:01.462Z,101259.31
2024-02-13T01:38:31.431Z,101263.19
2024-02-13T01:40:59.612Z,101266.06
2024-02-13T01:43:30.407Z,101272.09
2024-02-13T01:45:59.829Z,101257.16
2024-02-13T01:48:27.960Z,101259.59
2024-02-13T01:50:57.347Z,101264.88
2024-02-13T01:53:25.862Z,101275.47
2024-02-13T01:55:53.857Z,101271.84
2024-02-13T01:58:21.904Z,101275.47
2024-02-13T02:00:50.002Z,101271.00
2024-02-13T02:03:20.253Z,101268.38
2024-02-13T02:05:48.395Z,101259.31
2024-02-13T02:08:16.452Z,101261.00
2024-02-13T02:10:45.795Z,101264.38
2024-02-13T02:13:15.936Z,101249.69
2024-02-13T02:15:44.064Z,101249.19
2024-02-13T02:18:12.305Z,101254.09
2024-02-13T02:20:41.819Z,101257.34
2024-02-13T02:23:09.979Z,101251.81
2024-02-13T02:25:39.372Z,101248.91
2024-02-13T02:28:07.623Z,101245.19
2024-02-13T02:30:35.659Z,101244.34
2024-02-13T02:33:04.292Z,101228.31
2024-02-13T02:35:32.389Z,101223.47
2024-02-13T02:38:00.440Z,101222.97
2024-02-13T02:40:29.217Z,101230.78
2024-02-13T02:43:00.773Z,101236.09
2024-02-13T02:45:29.132Z,101227.41
2024-02-13T02:47:57.941Z,101234.63
2024-02-13T02:50:26.462Z,101229.63
2024-02-13T02:52:54.520Z,101236.00
2024-02-13T02:55:23.431Z,101229.16
2024-02-13T02:57:52.191Z,101230.13
2024-02-13T03:00:22.326Z,101226.75
2024-02-13T03:02:50.574Z,101228.97
2024-02-13T03:05:19.099Z,101221.38
2024-02-13T03:07:48.096Z,101219.97
2024-02-13T03:10:16.199Z,101217.44
2024-02-13T03:12:45.344Z,101217.44
2024-02-13T03:15:14.015Z,101214.06
2024-02-13T03:17:43.705Z,101212.63
2024-02-13T03:20:14.012Z,101212.00
2024-02-13T03:22:43.275Z,101210.19
2024-02-13T03:25:11.624Z,101216.50
2024-02-13T03:27:39.679Z,101212.28
2024-02-13T03:30:09.580Z,101213.84
2024-02-13T03:32:37.774Z,101208.03
2024-02-13T03:35:08.147Z,101209.50
2024-02-13T03:37:36.391Z,101202.72
2024-02-13T03:40:07.574Z,101202.22
2024-02-13T03:42:37.489Z,101198.19
2024-02-13T03:45:06.506Z,101194.22
2024-02-13T03:47:34.723Z,101197.56
2024-02-13T03:50:03.868Z,101191.44
2024-02-13T03:52:35.151Z,101180.84
2024-02-13T03:55:04.305Z,101182.38
2024-02-13T03:57:32.598Z,101177.94
2024-02-13T04:00:01.604Z,101182.66
2024-02-13T04:02:34.325Z,101183.88
2024-02-13T04:05:02.451Z,101182.78
2024-02-13T04:07:30.473Z,101184.19
2024-02-13T04:10:00.888Z,101186.72
2024-02-13T04:12:28.907Z,101187.31
2024-02-13T04:14:57.215Z,101184.41
2024-02-13T04:17:26.228Z,101180.19
2024-02-13T04:19:54.710Z,101183.00
2024-02-13T04:22:22.828Z,101180.06
2024-02-13T04:24:51.256Z,101178.97
2024-02-13T04:27:22.318Z,101181.34
2024-02-13T04:29:50.587Z,101171.22
2024-02-13T04:32:18.742Z,101171.09
2024-02-13T04:34:46.840Z,101170.94
2024-02-13T04:37:14.858Z,101169.00
2024-02-13T04:39:42.880Z,101164.44
2024-02-13T04:42:12.359Z,101158.16
2024-02-13T04:44:41.888Z,101159.13
2024-02-13T04:47:09.916Z,101163.47
2024-02-13T04:49:38.006Z,101166.78
2024-02-13T04:52:06.732Z,101153.13
2024-02-13T04:54:34.828Z,101155.22
2024-02-13T04:57:02.815Z,101148.13
2024-02-13T04:59:38.738Z,101156.19
2024-02-13T05:02:08.247Z,101150.91
2024-02-13T05:04:53.805Z,101152.59
2024-02-13T05:07:21.833Z,101156.19
2024-02-13T05:09:49.962Z,101142.81
2024-02-13T05:12:17.960Z,101139.22
2024-02-13T05:14:46.022Z,101149.81
2024-02-13T05:17:16.085Z,101141.03
2024-02-13T05:19:44.114Z,101136.97
2024-02-13T05:22:12.103Z,101139.47
2024-02-13T05:24:40.455Z,101136.69
2024-02-13T05:27:09.283Z,101130.53
2024-02-13T05:29:37.402Z,101138.38
2024-02-13T05:32:05.735Z,101148.13
2024-02-13T05:34:35.479Z,101151.75
2024-02-13T05:37:03.577Z,101152.59
2024-02-13T05:39:31.555Z,101143.66
2024-02-13T05:41:59.606Z,101141.03
2024-02-13T05:44:27.587Z,101145.34
2024-02-13T05:46:57.549Z,101135.59
2024-02-13T05:49:25.656Z,101132.66
2024-02-13T05:51:56.457Z,101128.19
2024-02-13T05:54:24.517Z,101127.22
2024-02-13T05:56:52.635Z,101127.22
2024-02-13T05:59:25.046Z,101122.78
2024-02-13T06:01:53.901Z,101116.63
2024-02-13T06:04:22.737Z,101115.94
2024-02-13T06:06:50.706Z,101118.84
2024-02-13T06:09:22.488Z,101112.59
2024-02-13T06:11:50.876Z,101119.28
2024-02-13T06:14:20.137Z,101115.94
2024-02-13T06:16:48.462Z,101109.94
2024-02-13T06:19:16.609Z,101098.75
2024-02-13T06:21:44.731Z,101103.22
2024-02-13T06:24:12.845Z,101100.56
2024-02-13T06:26:42.568Z,101103.22
2024-02-13T06:29:10.733Z,101098.91
2024-02-13T06:31:38.843Z,101101.56
2024-02-13T06:34:06.928Z,101097.91
2024-02-13T06:36:34.975Z,101092.88
2024-02-13T06:39:04.200Z,101098.44
2024-02-13T06:41:32.377Z,101105.97
2024-02-13T06:44:04.382Z,101093.69
2024-02-13T06:46:32.404Z,101095.22
2024-02-13T06:49:00.599Z,101094.41
2024-02-13T06:51:30.080Z,101080.19
2024-02-13T06:54:01.917Z,101085.59
2024-02-13T06:56:30.139Z,101080.44
2024-02-13T06:58:58.159Z,101093.56
2024-02-13T07:01:28.057Z,101090.06
2024-02-13T07:03:56.077Z,101094.53
2024-02-13T07:06:37.872Z,101090.19
2024-02-13T07:09:13.045Z,101095.63
2024-02-13T07:11:41.123Z,101098.97
2024-02-13T07:14:10.050Z,101092.00
2024-02-13T07:16:41.520Z,101090.31
2024-02-13T07:19:11.301Z,101083.22
2024-02-13T07:21:39.578Z,101084.75
2024-02-13T07:24:08.548Z,101085.59
2024-02-13T07:26:37.284Z,101081.28
2024-02-13T07:29:05.430Z,101080.31
2024-02-13T07:31:36.782Z,101077.53
2024-02-13T07:34:06.429Z,101081.16
2024-02-13T07:36:34.609Z,101070.53
2024-02-13T07:39:02.899Z,101073.88
2024-02-13T07:41:30.953Z,101075.56
2024-02-13T07:44:00.230Z,101075.56
2024-02-13T07:46:28.274Z,101078.94
2024-02-13T07:48:56.696Z,101081.56
2024-02-13T07:51:26.227Z,101072.78
2024-02-13T07:53:54.310Z,101077.97
2024-02-13T07:56:29.846Z,101070.84
2024-02-13T07:58:58.932Z,101068.91
2024-02-13T08:01:26.982Z,101066.09
2024-02-13T08:03:55.833Z,101066.09
2024-02-13T08:06:24.102Z,101061.94
2024-02-13T08:08:53.632Z,101057.19
2024-02-13T08:11:22.805Z,101058.03
2024-02-13T08:13:50.885Z,101042.44
2024-02-13T08:16:20.141Z,101042.72
2024-02-13T08:18:51.389Z,101030.16
2024-02-13T08:21:19.756Z,101031.84
2024-02-13T08:23:47.819Z,101035.47
2024-02-13T08:26:17.284Z,101031.84
2024-02-13T08:28:45.632Z,101024.59
2024-02-13T08:31:13.672Z,101020.97
2024-02-13T08:33:42.273Z,101014.72
2024-02-13T08:36:10.695Z,101010.81
2024-02-13T08:38:44.683Z,101002.00
2024-02-13T08:41:14.731Z,101007.06
2024-02-13T08:43:44.233Z,101000.91
2024-02-13T08:46:14.534Z,100999.66
2024-02-13T08:48:43.036Z,100988.78
2024-02-13T08:51:11.336Z,100989.63
2024-02-13T08:53:39.482Z,100987.66
2024-02-13T08:56:07.954Z,100973.28
2024-02-13T08:58:36.177Z,100981.13
2024-02-13T09:01:06.166Z,100971.06
2024-02-13T09:03:35.217Z,100962.84
2024-02-13T09:06:05.856Z,100962.84
2024-02-13T09:08:34.725Z,100956.97
2024-02-13T09:11:02.765Z,100943.72
2024-02-13T09:13:31.331Z,100944.69
2024-02-13T09:15:59.383Z,100936.59
2024-02-13T09:18:28.953Z,100929.50
2024-02-13T09:20:59.987Z,100929.22
2024-02-13T09:23:29.225Z,100928.78
2024-02-13T09:25:57.314Z,100905.47
2024-02-13T09:28:25.477Z,100918.59
2024-02-13T09:30:53.491Z,100910.38
2024-02-13T09:33:22.595Z,100905.78
2024-02-13T09:35:52.471Z,100910.38
2024-02-13T09:38:20.583Z,100895.13
2024-02-13T09:40:50.087Z,100906.88
2024-02-13T09:43:19.170Z,100897.66
2024-02-13T09:45:47.380Z,100899.88
2024-02-13T09:48:21.121Z,100891.78
2024-02-13T09:50:51.745Z,100872.22
2024-02-13T09:53:24.122Z,100877.94
2024-02-13T09:55:52.307Z,100883.94
2024-02-13T09:58:21.736Z,100871.06
2024-02-13T10:00:50.115Z,100869.09
2024-02-13T10:03:18.519Z,100864.88
2024-02-13T10:05:46.689Z,100857.47
2024-02-13T10:08:19.019Z,100850.06
2024-02-13T10:10:47.397Z,100858.69
2024-02-13T10:13:15.647Z,100840.94
2024-02-13T10:15:45.056Z,100842.47
2024-02-13T10:18:14.945Z,100839.91
2024-02-13T10:20:43.176Z,100830.66
2024-02-13T10:23:14.429Z,100836.81
2024-02-13T10:25:44.813Z,100839.88
2024-02-13T10:28:13.523Z,100835.09
2024-02-13T10:30:41.832Z,100829.19
2024-02-13T10:33:09.901Z,100835.88
2024-02-13T10:35:38.758Z,100830.25
2024-02-13T10:38:08.747Z,100829.97
2024-02-13T10:40:40.562Z,100822.69
2024-02-13T10:43:13.583Z,100820.41
2024-02-13T10:45:41.875Z,100811.97
2024-02-13T10:48:15.594Z,100808.06
2024-02-13T10:50:44.273Z,100809.25
2024-02-13T10:53:15.508Z,100809.94
2024-02-13T10:55:44.196Z,100806.81
2024-02-13T10:58:24.176Z,100809.34
2024-02-13T11:00:57.097Z,100811.66
2024-02-13T11:03:25.674Z,100810.03
2024-02-13T11:05:54.310Z,100814.34
2024-02-13T11:08:22.740Z,100800.06
2024-02-13T11:10:51.183Z,100799.00
2024-02-13T11:13:21.822Z,100793.91
2024-02-13T11:15:50.248Z,100788.16
2024-02-13T11:18:18.481Z,100774.88
2024-02-13T11:20:47.509Z,100778.88
2024-02-13T11:23:17.174Z,100786.56
2024-02-13T11:25:57.610Z,100783.59
2024-02-13T11:28:33.757Z,100779.81
2024-02-13T11:31:01.784Z,100780.66
2024-02-13T11:33:30.052Z,100790.13
2024-02-13T11:36:00.096Z,100775.38
2024-02-13T11:38:30.237Z,100775.22
2024-02-13T11:40:58.495Z,100766.78
2024-02-13T11:43:28.449Z,100773.44
2024-02-13T11:45:57.764Z,100766.69
2024-02-13T11:48:30.489Z,100764.41
2024-02-13T11:51:03.469Z,100748.00
2024-02-13T11:53:32.471Z,100744.44
2024-02-13T11:56:00.631Z,100734.69
2024-02-13T11:58:32.676Z,100744.09
2024-02-13T12:01:02.261Z,100738.34
2024-02-13T12:03:30.572Z,100736.53
2024-02-13T12:05:59.005Z,100726.72
2024-02-13T12:08:29.049Z,100726.88
2024-02-13T12:10:58.960Z,100729.41
2024-02-13T12:13:26.992Z,100721.75
2024-02-13T12:15:58.713Z,100726.78
2024-02-13T12:18:28.986Z,100723.25
2024-02-13T12:20:58.092Z,100716.59
2024-02-13T12:23:26.756Z,100720.59
2024-02-13T12:26:00.632Z,100720.75
2024-02-13T12:28:29.469Z,100707.75
2024-02-13T12:31:00.388Z,100706.59
2024-02-13T12:33:30.065Z,100707.44
2024-02-13T12:36:02.610Z,100707.44
2024-02-13T12:38:31.870Z,100706.75
2024-02-13T12:41:00.197Z,100708.59
2024-02-13T12:43:29.695Z,100702.09
2024-02-13T12:46:00.006Z,100702.41
2024-02-13T12:48:35.241Z,100683.75
2024-02-13T12:51:10.287Z,100703.78
2024-02-13T12:53:40.832Z,100698.25
2024-02-13T12:56:10.978Z,100690.44
2024-02-13T12:58:39.280Z,100694.75
2024-02-13T13:01:11.293Z,100684.75
2024-02-13T13:03:40.274Z,100702.25
2024-02-13T13:06:12.686Z,100690.75
2024-02-13T13:08:43.280Z,100692.06
2024-02-13T13:11:11.756Z,100690.41
2024-02-13T13:13:40.157Z,100699.91
2024-02-13T13:16:12.556Z,100688.91
2024-02-13T13:18:40.764Z,100685.56
2024-02-13T13:21:09.751Z,100687.06
2024-02-13T13:23:39.321Z,100686.88
2024-02-13T13:26:09.836Z,100692.38
2024-02-13T13:28:39.785Z,100700.22
2024-02-13T13:31:10.078Z,100682.53
2024-02-13T13:33:38.867Z,100682.06
2024-02-13T13:36:08.942Z,100689.72
2024-02-13T13:38:39.558Z,100693.38
2024-02-13T13:41:08.411Z,100678.56
2024-02-13T13:43:36.518Z,100678.34
2024-02-13T13:46:05.375Z,100689.53
2024-02-13T13:48:36.159Z,100686.19
2024-02-13T13:51:04.948Z,100687.38
2024-02-13T13:53:33.332Z,100686.03
2024-02-13T13:56:01.500Z,100690.69
2024-02-13T13:58:30.876Z,100682.72
2024-02-13T14:00:58.998Z,100688.25
2024-02-13T14:03:27.069Z,100678.72
2024-02-13T14:05:56.609Z,100685.03
2024-02-13T14:08:24.765Z,100687.38
2024-02-13T14:10:53.729Z,100681.22
2024-02-13T14:13:21.747Z,100678.03
2024-02-13T14:15:50.829Z,100681.19
2024-02-13T14:18:20.919Z,100664.72
2024-02-13T14:20:49.108Z,100669.72
2024-02-13T14:23:21.762Z,100679.41
2024-02-13T14:25:50.386Z,100676.72
2024-02-13T14:28:19.161Z,100672.41
2024-02-13T14:30:47.566Z,100673.22
2024-02-13T14:33:16.449Z,100680.25
2024-02-13T14:35:48.753Z,100677.06
2024-02-13T14:38:18.644Z,100677.72
2024-02-13T14:40:47.034Z,100693.72
2024-02-13T14:43:16.523Z,100688.72
2024-02-13T14:45:45.528Z,100700.88
2024-02-13T14:48:16.356Z,100693.88
2024-02-13T14:50:45.863Z,100707.75
2024-02-13T14:53:18.334Z,100715.75
2024-02-13T14:55:47.981Z,100689.25
2024-02-13T14:58:23.170Z,100701.94
2024-02-13T15:00:59.187Z,100704.25
2024-02-13T15:03:27.777Z,100719.09
2024-02-13T15:05:55.906Z,100701.09
2024-02-13T15:08:24.190Z,100714.75
2024-02-13T15:10:53.705Z,100729.44
2024-02-13T15:13:22.572Z,100723.44
2024-02-13T15:15:52.239Z,100735.09
2024-02-13T15:18:23.514Z,100733.75
2024-02-13T15:20:52.192Z,100742.75
2024-02-13T15:23:20.419Z,100728.91
2024-02-13T15:25:48.575Z,100727.09
2024-02-13T15:28:18.442Z,100735.41
2024-02-13T15:30:46.810Z,100728.75
2024-02-13T15:33:16.039Z,100735.09
2024-02-13T15:35:53.053Z,100734.41
2024-02-13T15:38:38.945Z,100751.41
2024-02-13T15:41:24.327Z,100751.09
2024-02-13T15:44:11.465Z,100748.41
2024-02-13T15:46:56.958Z,100736.75
2024-02-13T15:49:25.257Z,100750.25
2024-02-13T15:51:53.682Z,100767.41
2024-02-13T15:54:21.846Z,100756.06
2024-02-13T15:56:50.899Z,100766.75
2024-02-13T15:59:20.553Z,100765.75
2024-02-13T16:01:48.635Z,100770.25
2024-02-13T16:04:19.538Z,100771.75
2024-02-13T16:06:48.453Z,100784.41
2024-02-13T16:09:16.791Z,100786.75
2024-02-13T16:11:45.114Z,100790.94
2024-02-13T16:14:14.379Z,100772.56
2024-02-13T16:16:44.236Z,100783.09
2024-02-13T16:19:12.404Z,100797.75
2024-02-13T16:21:43.191Z,100801.09
2024-02-13T16:24:11.964Z,100806.75
2024-02-13T16:26:50.060Z,100793.91
2024-02-13T16:29:21.113Z,100807.41
2024-02-13T16:31:54.380Z,100817.41
2024-02-13T16:34:23.090Z,100820.44
2024-02-13T16:36:51.353Z,100823.09
2024-02-13T16:39:19.619Z,100819.25
2024-02-13T16:41:47.818Z,100818.41
2024-02-13T16:44:24.775Z,100822.09
2024-02-13T16:47:00.460Z,100825.06
2024-02-13T16:49:28.671Z,100840.75
2024-02-13T16:51:56.718Z,100832.56
2024-02-13T16:54:24.773Z,100823.75
2024-02-13T16:56:53.622Z,100825.41
2024-02-13T16:59:21.720Z,100839.56
2024-02-13T17:01:49.765Z,100836.06
2024-02-13T17:04:19.371Z,100839.41
2024-02-13T17:06:47.983Z,100845.06
2024-02-13T17:09:17.036Z,100847.75
2024-02-13T17:11:45.224Z,100841.25
2024-02-13T17:14:13.361Z,100844.75
2024-02-13T17:16:41.400Z,100853.09
2024-02-13T17:19:14.576Z,100858.44
2024-02-13T17:21:44.424Z,100869.09
2024-02-13T17:24:12.858Z,100874.44
2024-02-13T17:26:41.370Z,100883.41
2024-02-13T17:29:09.839Z,100879.56
2024-02-13T17:31:37.918Z,100876.72
2024-02-13T17:34:06.220Z,100874.72
2024-02-13T17:36:34.396Z,100874.53
2024-02-13T17:39:06.506Z,100875.03
2024-02-13T17:41:34.695Z,100889.66
2024-02-13T17:44:02.773Z,100885.13
2024-02-13T17:46:30.840Z,100892.31
2024-02-13T17:48:59.149Z,100883.66
2024-02-13T17:51:27.332Z,100887.97
2024-02-13T17:53:56.392Z,100892.13
2024-02-13T17:56:26.238Z,100891.00
2024-02-13T17:58:55.075Z,100889.19
2024-02-13T18:01:23.250Z,100898.34
2024-02-13T18:03:53.159Z,100905.00
2024-02-13T18:06:21.435Z,100907.34
2024-02-13T18:08:49.454Z,100913.69
2024-02-13T18:11:17.466Z,100918.69
2024-02-13T18:13:47.398Z,100935.50
2024-02-13T18:16:15.800Z,100944.84
2024-02-13T18:18:44.091Z,100945.03
2024-02-13T18:21:12.462Z,100936.19
2024-02-13T18:23:40.629Z,100941.03
2024-02-13T18:26:08.664Z,100952.66
2024-02-13T18:28:38.449Z,100956.16
2024-02-13T18:31:08.205Z,100965.16
2024-02-13T18:33:36.350Z,100962.66
2024-02-13T18:36:05.881Z,100961.38
2024-02-13T18:38:33.957Z,100972.03
2024-02-13T18:41:02.065Z,100966.34
2024-02-13T18:43:30.171Z,100972.69
2024-02-13T18:45:58.206Z,100976.72
2024-02-13T18:48:27.999Z,100978.03
2024-02-13T18:50:56.138Z,100983.72
2024-02-13T18:53:26.641Z,100971.22
2024-02-13T18:55:55.322Z,100987.56
2024-02-13T18:58:23.377Z,100990.38
2024-02-13T19:00:51.879Z,100987.03
2024-02-13T19:03:21.436Z,100992.38
2024-02-13T19:05:52.152Z,100986.44
2024-02-13T19:08:20.878Z,100994.56
2024-02-13T19:10:49.834Z,100987.56
2024-02-13T19:13:17.984Z,100980.38
2024-02-13T19:15:46.487Z,100972.41
2024-02-13T19:18:15.098Z,100965.72
2024-02-13T19:20:43.898Z,100987.38
2024-02-13T19:23:13.368Z,100984.69
2024-02-13T19:25:41.444Z,100981.88
2024-02-13T19:28:09.916Z,100994.69
2024-02-13T19:30:38.040Z,100994.66
2024-02-13T19:33:08.089Z,100990.00
2024-02-13T19:35:36.340Z,100983.66
2024-02-13T19:38:04.480Z,100988.34
2024-02-13T19:40:34.104Z,100977.19
2024-02-13T19:43:02.163Z,100985.00
2024-02-13T19:45:30.256Z,100979.66
2024-02-13T19:47:58.571Z,100985.31
2024-02-13T19:50:26.724Z,100983.66
2024-02-13T19:52:54.848Z,100987.31
2024-02-13T19:55:22.893Z,100983.31
2024-02-13T19:57:54.554Z,100991.50
2024-02-13T20:00:23.366Z,100991.16
2024-02-13T20:02:51.392Z,100993.97
2024-02-13T20:05:19.718Z,100992.69
2024-02-13T20:07:48.028Z,100988.19
2024-02-13T20:10:17.415Z,100983.69
2024-02-13T20:12:45.791Z,100996.69
2024-02-13T20:15:14.627Z,100992.03
2024-02-13T20:17:45.152Z,100997.56
2024-02-13T20:20:15.970Z,100994.72
2024-02-13T20:22:46.601Z,100981.09
2024-02-13T20:25:15.236Z,100990.56
2024-02-13T20:27:44.725Z,100996.91
2024-02-13T20:30:15.622Z,100999.06
2024-02-13T20:32:48.017Z,101004.06
2024-02-13T20:35:16.215Z,101007.09
2024-02-13T20:37:44.339Z,101009.41
2024-02-13T20:40:13.250Z,101010.72
2024-02-13T20:42:43.411Z,101007.75
2024-02-13T20:45:20.605Z,101013.41
2024-02-13T20:47:53.486Z,101019.72
2024-02-13T20:50:22.341Z,101013.22
2024-02-13T20:52:50.604Z,101022.38
2024-02-13T20:55:20.194Z,101011.69
2024-02-13T20:57:49.281Z,101025.84
2024-02-13T21:00:18.753Z,101024.72
2024-02-13T21:02:49.316Z,101022.19
2024-02-13T21:05:21.942Z,101027.53
2024-02-13T21:07:50.303Z,101025.16
2024-02-13T21:10:18.598Z,101025.03
2024-02-13T21:12:46.865Z,101035.84
2024-02-13T21:15:14.974Z,101028.19
2024-02-13T21:17:43.465Z,101039.34
2024-02-13T21:20:12.913Z,101029.34
2024-02-13T21:22:59.820Z,101032.88
2024-02-13T21:25:28.050Z,101038.19
2024-02-13T21:27:56.275Z,101036.38
2024-02-13T21:30:24.307Z,101030.03
2024-02-13T21:32:53.175Z,101039.03
2024-02-13T21:35:22.722Z,101043.69
2024-02-13T21:37:52.202Z,101036.16
2024-02-13T21:40:20.375Z,101021.50
2024-02-13T21:42:50.477Z,101039.34
2024-02-13T21:45:18.573Z,101040.50
2024-02-13T21:47:46.932Z,101040.81
2024-02-13T21:50:15.583Z,101042.69
2024-02-13T21:52:43.892Z,101042.38
2024-02-13T21:55:13.362Z,101037.06
2024-02-13T21:57:41.383Z,101040.06
2024-02-13T22:00:11.643Z,101032.22
2024-02-13T22:02:39.866Z,101031.41
2024-02-13T22:05:08.295Z,101040.94
2024-02-13T22:07:38.685Z,101031.94
2024-02-13T22:10:09.120Z,101031.56
2024-02-13T22:12:38.799Z,101043.09
2024-02-13T22:15:11.609Z,101032.28
2024-02-13T22:17:40.154Z,101029.09
2024-02-13T22:20:09.938Z,101033.13
2024-02-13T22:22:38.183Z,101033.81
2024-02-13T22:25:06.896Z,101027.44
2024-02-13T22:27:34.886Z,101024.78
2024-02-13T22:30:04.661Z,101031.78
2024-02-13T22:32:32.969Z,101026.31
2024-02-13T22:35:01.314Z,101016.28
2024-02-13T22:37:30.411Z,101028.47
2024-02-13T22:39:59.766Z,101004.78
2024-02-13T22:42:27.936Z,101027.13
2024-02-13T22:44:55.966Z,101034.66
2024-02-13T22:47:25.546Z,101042.84
2024-02-13T22:49:53.838Z,101043.97
2024-02-13T22:52:21.932Z,101023.47
2024-02-13T22:54:49.908Z,101024.31
2024-02-13T22:57:17.980Z,101041.16
2024-02-13T22:59:46.556Z,101042.16
2024-02-13T23:02:14.648Z,101039.50
2024-02-13T23:04:50.166Z,101035.22
2024-02-13T23:07:19.732Z,101035.03
2024-02-13T23:09:47.738Z,101037.38
2024-02-13T23:12:16.881Z,101035.22
2024-02-13T23:14:45.088Z,101031.88
2024-02-13T23:17:13.078Z,101029.75
2024-02-13T23:19:41.120Z,101034.25
2024-02-13T23:22:10.659Z,101039.56
2024-02-13T23:24:39.375Z,101039.88
2024-02-13T23:27:08.253Z,101038.22
2024-02-13T23:29:35.530Z,101041.88
2024-02-13T23:32:03.547Z,101036.19
2024-02-13T23:34:32.804Z,101042.16
2024-02-13T23:37:00.851Z,101040.81
2024-02-13T23:39:30.236Z,101048.31
2024-02-13T23:41:58.290Z,101043.81
2024-02-13T23:44:26.579Z,101061.81
2024-02-13T23:46:54.621Z,101053.66
2024-02-13T23:49:22.676Z,101071.16
2024-02-13T23:51:51.798Z,101074.31
2024-02-13T23:54:19.888Z,101059.16
2024-02-13T23:56:49.401Z,101061.88
2024-02-13T23:59:17.503Z,101065.72
